sensor_id;sensor_type;location;lat;lon;timestamp;temperature;humidity
32107;DHT22;18622;51.998;10.440;2023-04-08T06:04:45;7.50;99.90
32107;DHT22;18622;51.998;10.440;2023-04-08T06:07:13;7.60;99.90
32107;DHT22;18622;51.998;10.440;2023-04-08T06:09:41;7.50;99.90
32107;DHT22;18622;51.998;10.440;2023-04-08T06:12:09;7.60;99.90
32107;DHT22;18622;51.998;10.440;2023-04-08T06:14:36;7.60;99.90
32107;DHT22;18622;51.998;10.440;2023-04-08T06:17:04;7.60;99.90
32107;DHT22;18622;51.998;10.440;2023-04-08T06:19:32;7.70;99.90
32107;DHT22;18622;51.998;10.440;2023-04-08T06:22:00;7.80;99.90
32107;DHT22;18622;51.998;10.440;2023-04-08T06:24:28;7.80;99.90
32107;DHT22;18622;51.998;10.440;2023-04-08T06:26:56;7.90;99.90
32107;DHT22;18622;51.998;10.440;2023-04-08T06:29:23;7.90;99.90
32107;DHT22;18622;51.998;10.440;2023-04-08T06:31:51;7.90;99.90
32107;DHT22;18622;51.998;10.440;2023-04-08T06:34:19;7.80;99.90
32107;DHT22;18622;51.998;10.440;2023-04-08T06:36:47;7.80;99.90
32107;DHT22;18622;51.998;10.440;2023-04-08T06:39:15;7.80;99.90
32107;DHT22;18622;51.998;10.440;2023-04-08T06:41:44;7.90;99.90
32107;DHT22;18622;51.998;10.440;2023-04-08T06:44:12;7.90;99.90
32107;DHT22;18622;51.998;10.440;2023-04-08T06:46:40;7.90;99.90
32107;DHT22;18622;51.998;10.440;2023-04-08T06:49:08;8.00;99.90
32107;DHT22;18622;51.998;10.440;2023-04-08T06:51:36;7.90;99.90
32107;DHT22;18622;51.998;10.440;2023-04-08T06:54:04;8.00;99.90
32107;DHT22;18622;51.998;10.440;2023-04-08T06:56:32;7.90;99.90
32107;DHT22;18622;51.998;10.440;2023-04-08T06:59:00;8.00;99.90
32107;DHT22;18622;51.998;10.440;2023-04-08T07:01:28;8.00;99.90
32107;DHT22;18622;51.998;10.440;2023-04-08T07:03:55;8.00;99.90
32107;DHT22;18622;51.998;10.440;2023-04-08T07:06:23;8.00;99.90
32107;DHT22;18622;51.998;10.440;2023-04-08T07:08:51;8.00;99.90
32107;DHT22;18622;51.998;10.440;2023-04-08T07:11:19;8.10;99.90
32107;DHT22;18622;51.998;10.440;2023-04-08T07:13:47;8.20;99.90
32107;DHT22;18622;51.998;10.440;2023-04-08T07:16:15;8.20;99.90
32107;DHT22;18622;51.998;10.440;2023-04-08T07:18:43;8.30;99.90
32107;DHT22;18622;51.998;10.440;2023-04-08T07:21:12;8.30;99.90
32107;DHT22;18622;51.998;10.440;2023-04-08T07:23:39;8.30;99.90
32107;DHT22;18622;51.998;10.440;2023-04-08T07:26:07;8.30;99.90
32107;DHT22;18622;51.998;10.440;2023-04-08T07:28:35;8.30;99.90
32107;DHT22;18622;51.998;10.440;2023-04-08T07:31:13;8.30;99.90
32107;DHT22;18622;51.998;10.440;2023-04-08T07:33:43;8.30;99.90
32107;DHT22;18622;51.998;10.440;2023-04-08T07:36:11;8.40;99.90
32107;DHT22;18622;51.998;10.440;2023-04-08T07:38:39;8.40;99.90
32107;DHT22;18622;51.998;10.440;2023-04-08T07:41:07;8.50;99.90
32107;DHT22;18622;51.998;10.440;2023-04-08T07:43:35;8.60;99.90
32107;DHT22;18622;51.998;10.440;2023-04-08T07:46:05;8.60;99.90
32107;DHT22;18622;51.998;10.440;2023-04-08T07:48:34;8.60;99.90
32107;DHT22;18622;51.998;10.440;2023-04-08T07:51:04;8.70;99.90
32107;DHT22;18622;51.998;10.440;2023-04-08T07:53:32;8.70;99.90
32107;DHT22;18622;51.998;10.440;2023-04-08T07:56:00;8.70;99.90
32107;DHT22;18622;51.998;10.440;2023-04-08T07:58:31;8.70;99.90
32107;DHT22;18622;51.998;10.440;2023-04-08T08:00:58;8.80;99.90
32107;DHT22;18622;51.998;10.440;2023-04-08T08:03:26;8.70;99.90
32107;DHT22;18622;51.998;10.440;2023-04-08T08:05:54;8.80;99.90
32107;DHT22;18622;51.998;10.440;2023-04-08T08:08:22;8.90;99.90
32107;DHT22;18622;51.998;10.440;2023-04-08T08:10:50;8.90;99.90
32107;DHT22;18622;51.998;10.440;2023-04-08T08:13:18;8.90;99.90
32107;DHT22;18622;51.998;10.440;2023-04-08T08:15:52;8.90;99.90
32107;DHT22;18622;51.998;10.440;2023-04-08T08:18:20;8.90;99.90
32107;DHT22;18622;51.998;10.440;2023-04-08T08:20:47;9.00;99.90
32107;DHT22;18622;51.998;10.440;2023-04-08T08:23:15;9.00;99.90
32107;DHT22;18622;51.998;10.440;2023-04-08T08:25:43;9.00;99.90
32107;DHT22;18622;51.998;10.440;2023-04-08T08:28:11;9.00;99.90
32107;DHT22;18622;51.998;10.440;2023-04-08T08:30:39;9.10;99.90
32107;DHT22;18622;51.998;10.440;2023-04-08T08:33:07;9.10;99.90
32107;DHT22;18622;51.998;10.440;2023-04-08T08:35:35;9.20;99.90
32107;DHT22;18622;51.998;10.440;2023-04-08T08:38:03;9.10;99.90
32107;DHT22;18622;51.998;10.440;2023-04-08T08:40:31;9.10;99.90
32107;DHT22;18622;51.998;10.440;2023-04-08T08:42:59;9.00;99.90
32107;DHT22;18622;51.998;10.440;2023-04-08T08:45:27;9.00;99.90
32107;DHT22;18622;51.998;10.440;2023-04-08T08:47:55;9.00;99.90
32107;DHT22;18622;51.998;10.440;2023-04-08T08:50:23;9.00;99.90
32107;DHT22;18622;51.998;10.440;2023-04-08T08:52:52;9.00;99.90
32107;DHT22;18622;51.998;10.440;2023-04-08T08:55:20;9.10;99.90
32107;DHT22;18622;51.998;10.440;2023-04-08T08:57:50;9.20;99.90
32107;DHT22;18622;51.998;10.440;2023-04-08T09:00:18;9.30;99.90
32107;DHT22;18622;51.998;10.440;2023-04-08T09:02:46;9.30;99.90
32107;DHT22;18622;51.998;10.440;2023-04-08T09:05:13;9.40;99.90
32107;DHT22;18622;51.998;10.440;2023-04-08T09:07:41;9.40;99.90
32107;DHT22;18622;51.998;10.440;2023-04-08T09:10:10;9.40;99.90
32107;DHT22;18622;51.998;10.440;2023-04-08T09:13:00;9.40;99.90
32107;DHT22;18622;51.998;10.440;2023-04-08T09:15:09;9.40;99.90
32107;DHT22;18622;51.998;10.440;2023-04-08T09:17:38;9.40;99.90
32107;DHT22;18622;51.998;10.440;2023-04-08T09:20:10;9.50;99.90
32107;DHT22;18622;51.998;10.440;2023-04-08T09:22:55;9.60;99.90
32107;DHT22;18622;51.998;10.440;2023-04-08T09:25:25;9.60;99.90
32107;DHT22;18622;51.998;10.440;2023-04-08T09:27:53;9.70;99.90
32107;DHT22;18622;51.998;10.440;2023-04-08T09:30:23;9.70;99.90
32107;DHT22;18622;51.998;10.440;2023-04-08T09:32:53;9.70;99.90
32107;DHT22;18622;51.998;10.440;2023-04-08T09:35:20;9.80;99.90
32107;DHT22;18622;51.998;10.440;2023-04-08T09:37:49;10.00;99.90
32107;DHT22;18622;51.998;10.440;2023-04-08T09:40:17;10.10;99.90
32107;DHT22;18622;51.998;10.440;2023-04-08T09:42:47;10.30;99.90
32107;DHT22;18622;51.998;10.440;2023-04-08T09:45:17;10.40;99.90
32107;DHT22;18622;51.998;10.440;2023-04-08T09:48:06;10.50;99.90
32107;DHT22;18622;51.998;10.440;2023-04-08T09:50:30;10.60;99.90
32107;DHT22;18622;51.998;10.440;2023-04-08T09:53:07;10.80;99.90
32107;DHT22;18622;51.998;10.440;2023-04-08T09:55:32;10.90;99.90
32107;DHT22;18622;51.998;10.440;2023-04-08T09:58:07;11.10;99.90
32107;DHT22;18622;51.998;10.440;2023-04-08T10:00:37;11.20;99.90
32107;DHT22;18622;51.998;10.440;2023-04-08T10:03:26;11.20;99.90
32107;DHT22;18622;51.998;10.440;2023-04-08T10:05:43;11.20;99.90
32107;DHT22;18622;51.998;10.440;2023-04-08T10:08:12;11.30;99.90
32107;DHT22;18622;51.998;10.440;2023-04-08T10:10:40;11.30;99.90
32107;DHT22;18622;51.998;10.440;2023-04-08T10:13:09;11.30;99.90
32107;DHT22;18622;51.998;10.440;2023-04-08T10:15:37;11.40;99.90
32107;DHT22;18622;51.998;10.440;2023-04-08T10:20:41;11.50;99.90
32107;DHT22;18622;51.998;10.440;2023-04-08T10:23:13;11.40;99.90
32107;DHT22;18622;51.998;10.440;2023-04-08T10:25:43;11.40;99.90
32107;DHT22;18622;51.998;10.440;2023-04-08T10:28:22;11.40;99.90
32107;DHT22;18622;51.998;10.440;2023-04-08T10:30:49;11.40;99.90
32107;DHT22;18622;51.998;10.440;2023-04-08T10:33:23;11.30;99.90
32107;DHT22;18622;51.998;10.440;2023-04-08T10:38:38;11.40;99.90
32107;DHT22;18622;51.998;10.440;2023-04-08T10:41:09;11.40;99.90
32107;DHT22;18622;51.998;10.440;2023-04-08T10:43:39;11.40;99.90
32107;DHT22;18622;51.998;10.440;2023-04-08T10:46:09;11.40;99.90
32107;DHT22;18622;51.998;10.440;2023-04-08T10:48:36;11.50;99.90
32107;DHT22;18622;51.998;10.440;2023-04-08T10:51:04;11.50;99.90
32107;DHT22;18622;51.998;10.440;2023-04-08T10:53:34;11.40;99.90
32107;DHT22;18622;51.998;10.440;2023-04-08T10:56:12;11.30;99.90
32107;DHT22;18622;51.998;10.440;2023-04-08T10:58:49;11.30;99.90
32107;DHT22;18622;51.998;10.440;2023-04-08T11:01:18;11.30;99.90
32107;DHT22;18622;51.998;10.440;2023-04-08T11:03:45;11.30;99.90
32107;DHT22;18622;51.998;10.440;2023-04-08T11:06:14;11.40;99.90
32107;DHT22;18622;51.998;10.440;2023-04-08T11:08:42;11.50;99.90
32107;DHT22;18622;51.998;10.440;2023-04-08T11:11:10;11.60;99.90
32107;DHT22;18622;51.998;10.440;2023-04-08T11:13:44;11.70;99.90
32107;DHT22;18622;51.998;10.440;2023-04-08T11:16:12;11.80;99.90
32107;DHT22;18622;51.998;10.440;2023-04-08T11:18:40;11.90;99.90
32107;DHT22;18622;51.998;10.440;2023-04-08T11:21:09;12.00;99.70
32107;DHT22;18622;51.998;10.440;2023-04-08T11:23:37;11.90;99.90
32107;DHT22;18622;51.998;10.440;2023-04-08T11:26:05;11.90;99.90
32107;DHT22;18622;51.998;10.440;2023-04-08T11:28:34;11.90;99.90
32107;DHT22;18622;51.998;10.440;2023-04-08T11:31:02;11.90;99.80
32107;DHT22;18622;51.998;10.440;2023-04-08T11:33:31;11.80;99.20
32107;DHT22;18622;51.998;10.440;2023-04-08T11:36:01;11.70;99.60
32107;DHT22;18622;51.998;10.440;2023-04-08T11:38:37;11.60;99.70
32107;DHT22;18622;51.998;10.440;2023-04-08T11:41:04;11.50;99.80
32107;DHT22;18622;51.998;10.440;2023-04-08T11:43:32;11.40;99.90
32107;DHT22;18622;51.998;10.440;2023-04-08T11:46:11;11.30;99.90
32107;DHT22;18622;51.998;10.440;2023-04-08T11:48:40;11.30;99.90
32107;DHT22;18622;51.998;10.440;2023-04-08T11:51:08;11.30;99.90
32107;DHT22;18622;51.998;10.440;2023-04-08T11:53:38;11.40;99.90
32107;DHT22;18622;51.998;10.440;2023-04-08T11:56:19;11.40;99.90
32107;DHT22;18622;51.998;10.440;2023-04-08T11:58:47;11.40;99.90
32107;DHT22;18622;51.998;10.440;2023-04-08T12:01:15;11.50;99.90
32107;DHT22;18622;51.998;10.440;2023-04-08T12:03:56;11.60;99.90
32107;DHT22;18622;51.998;10.440;2023-04-08T12:06:24;11.70;99.90
32107;DHT22;18622;51.998;10.440;2023-04-08T12:08:53;11.90;99.90
32107;DHT22;18622;51.998;10.440;2023-04-08T12:11:21;11.90;99.90
32107;DHT22;18622;51.998;10.440;2023-04-08T12:13:49;11.90;99.90
32107;DHT22;18622;51.998;10.440;2023-04-08T12:16:18;11.90;99.90
32107;DHT22;18622;51.998;10.440;2023-04-08T12:18:46;11.80;99.70
32107;DHT22;18622;51.998;10.440;2023-04-08T12:21:13;11.80;99.90
32107;DHT22;18622;51.998;10.440;2023-04-08T12:23:41;11.80;99.90
32107;DHT22;18622;51.998;10.440;2023-04-08T12:26:09;11.80;99.90
32107;DHT22;18622;51.998;10.440;2023-04-08T12:28:37;11.80;99.90
32107;DHT22;18622;51.998;10.440;2023-04-08T12:31:05;11.80;99.90
32107;DHT22;18622;51.998;10.440;2023-04-08T12:33:33;11.80;99.90
32107;DHT22;18622;51.998;10.440;2023-04-08T12:36:01;11.80;99.90
32107;DHT22;18622;51.998;10.440;2023-04-08T12:38:29;11.80;99.90
32107;DHT22;18622;51.998;10.440;2023-04-08T12:40:56;11.80;99.90
32107;DHT22;18622;51.998;10.440;2023-04-08T12:43:24;11.80;99.90
32107;DHT22;18622;51.998;10.440;2023-04-08T12:45:52;11.90;99.90
32107;DHT22;18622;51.998;10.440;2023-04-08T12:48:20;12.00;99.90
32107;DHT22;18622;51.998;10.440;2023-04-08T12:50:48;12.00;99.90
32107;DHT22;18622;51.998;10.440;2023-04-08T12:53:16;12.20;99.90
32107;DHT22;18622;51.998;10.440;2023-04-08T12:55:43;12.20;99.90
32107;DHT22;18622;51.998;10.440;2023-04-08T12:58:11;12.20;99.90
32107;DHT22;18622;51.998;10.440;2023-04-08T13:00:39;12.20;99.90
32107;DHT22;18622;51.998;10.440;2023-04-08T13:03:09;12.20;99.90
32107;DHT22;18622;51.998;10.440;2023-04-08T13:05:36;12.20;99.90
32107;DHT22;18622;51.998;10.440;2023-04-08T13:08:04;12.20;99.80
32107;DHT22;18622;51.998;10.440;2023-04-08T13:10:32;12.20;99.90
32107;DHT22;18622;51.998;10.440;2023-04-08T13:13:00;12.30;99.90
32107;DHT22;18622;51.998;10.440;2023-04-08T13:15:28;12.40;99.90
32107;DHT22;18622;51.998;10.440;2023-04-08T13:17:56;12.60;99.90
32107;DHT22;18622;51.998;10.440;2023-04-08T13:20:24;12.70;99.20
32107;DHT22;18622;51.998;10.440;2023-04-08T13:22:52;12.80;98.80
32107;DHT22;18622;51.998;10.440;2023-04-08T13:25:20;12.80;99.00
32107;DHT22;18622;51.998;10.440;2023-04-08T13:27:48;13.00;98.30
32107;DHT22;18622;51.998;10.440;2023-04-08T13:30:16;13.00;98.60
32107;DHT22;18622;51.998;10.440;2023-04-08T13:32:44;13.10;98.90
32107;DHT22;18622;51.998;10.440;2023-04-08T13:35:11;13.30;98.60
32107;DHT22;18622;51.998;10.440;2023-04-08T13:37:39;13.40;98.70
32107;DHT22;18622;51.998;10.440;2023-04-08T13:40:08;13.40;98.30
32107;DHT22;18622;51.998;10.440;2023-04-08T13:42:36;13.40;97.60
32107;DHT22;18622;51.998;10.440;2023-04-08T13:45:05;13.40;98.20
32107;DHT22;18622;51.998;10.440;2023-04-08T13:47:32;13.50;98.00
32107;DHT22;18622;51.998;10.440;2023-04-08T13:50:00;13.50;98.30
32107;DHT22;18622;51.998;10.440;2023-04-08T13:52:28;13.60;98.60
32107;DHT22;18622;51.998;10.440;2023-04-08T13:54:56;13.60;97.30
32107;DHT22;18622;51.998;10.440;2023-04-08T13:57:24;13.60;96.40
32107;DHT22;18622;51.998;10.440;2023-04-08T13:59:51;13.50;97.10
32107;DHT22;18622;51.998;10.440;2023-04-08T14:02:19;13.40;97.00
32107;DHT22;18622;51.998;10.440;2023-04-08T14:04:47;13.40;96.50
32107;DHT22;18622;51.998;10.440;2023-04-08T14:07:15;13.50;96.50
32107;DHT22;18622;51.998;10.440;2023-04-08T14:09:43;13.50;96.10
32107;DHT22;18622;51.998;10.440;2023-04-08T14:12:11;13.50;96.50
32107;DHT22;18622;51.998;10.440;2023-04-08T14:14:39;13.60;97.10
32107;DHT22;18622;51.998;10.440;2023-04-08T14:17:07;13.60;96.70
32107;DHT22;18622;51.998;10.440;2023-04-08T14:19:35;13.60;96.00
32107;DHT22;18622;51.998;10.440;2023-04-08T14:22:03;13.50;95.80
32107;DHT22;18622;51.998;10.440;2023-04-08T14:24:30;13.50;96.60
32107;DHT22;18622;51.998;10.440;2023-04-08T14:26:58;13.40;96.10
32107;DHT22;18622;51.998;10.440;2023-04-08T14:29:26;13.20;96.00
32107;DHT22;18622;51.998;10.440;2023-04-08T14:31:56;13.10;96.00
32107;DHT22;18622;51.998;10.440;2023-04-08T14:34:24;12.90;96.50
32107;DHT22;18622;51.998;10.440;2023-04-08T14:36:52;12.70;97.00
32107;DHT22;18622;51.998;10.440;2023-04-08T14:39:20;12.60;97.40
32107;DHT22;18622;51.998;10.440;2023-04-08T14:41:47;12.60;97.60
32107;DHT22;18622;51.998;10.440;2023-04-08T14:44:15;12.50;97.40
32107;DHT22;18622;51.998;10.440;2023-04-08T14:46:43;12.40;97.80
32107;DHT22;18622;51.998;10.440;2023-04-08T14:49:11;12.40;98.20
32107;DHT22;18622;51.998;10.440;2023-04-08T14:51:39;12.40;98.10
32107;DHT22;18622;51.998;10.440;2023-04-08T14:54:07;12.40;98.40
32107;DHT22;18622;51.998;10.440;2023-04-08T14:56:35;12.30;98.50
32107;DHT22;18622;51.998;10.440;2023-04-08T14:59:02;12.20;98.40
32107;DHT22;18622;51.998;10.440;2023-04-08T15:01:30;12.20;98.70
32107;DHT22;18622;51.998;10.440;2023-04-08T15:03:59;12.20;98.70
32107;DHT22;18622;51.998;10.440;2023-04-08T15:06:26;12.20;99.10
32107;DHT22;18622;51.998;10.440;2023-04-08T15:08:54;12.30;99.00
32107;DHT22;18622;51.998;10.440;2023-04-08T15:11:22;12.30;99.00
32107;DHT22;18622;51.998;10.440;2023-04-08T15:13:51;12.30;99.00
32107;DHT22;18622;51.998;10.440;2023-04-08T15:16:19;12.30;98.40
32107;DHT22;18622;51.998;10.440;2023-04-08T15:18:47;12.20;98.50
32107;DHT22;18622;51.998;10.440;2023-04-08T15:21:15;12.20;98.60
32107;DHT22;18622;51.998;10.440;2023-04-08T15:23:42;12.10;98.60
32107;DHT22;18622;51.998;10.440;2023-04-08T15:26:10;12.00;98.90
32107;DHT22;18622;51.998;10.440;2023-04-08T15:28:38;12.00;99.30
32107;DHT22;18622;51.998;10.440;2023-04-08T15:31:07;12.00;99.50
32107;DHT22;18622;51.998;10.440;2023-04-08T15:33:35;12.10;99.70
32107;DHT22;18622;51.998;10.440;2023-04-08T15:36:04;12.30;99.40
32107;DHT22;18622;51.998;10.440;2023-04-08T15:38:32;12.40;98.90
32107;DHT22;18622;51.998;10.440;2023-04-08T15:41:00;12.50;99.30
32107;DHT22;18622;51.998;10.440;2023-04-08T15:43:29;12.50;99.00
32107;DHT22;18622;51.998;10.440;2023-04-08T15:45:57;12.60;99.10
32107;DHT22;18622;51.998;10.440;2023-04-08T15:48:24;12.70;99.40
32107;DHT22;18622;51.998;10.440;2023-04-08T15:50:52;12.70;99.00
32107;DHT22;18622;51.998;10.440;2023-04-08T15:53:20;12.70;98.70
32107;DHT22;18622;51.998;10.440;2023-04-08T15:55:48;12.70;98.40
32107;DHT22;18622;51.998;10.440;2023-04-08T15:58:16;12.60;98.60
32107;DHT22;18622;51.998;10.440;2023-04-08T16:00:44;12.60;98.80
32107;DHT22;18622;51.998;10.440;2023-04-08T16:03:13;12.50;98.80
32107;DHT22;18622;51.998;10.440;2023-04-08T16:05:41;12.50;98.90
32107;DHT22;18622;51.998;10.440;2023-04-08T16:08:09;12.50;98.80
32107;DHT22;18622;51.998;10.440;2023-04-08T16:10:37;12.50;99.00
32107;DHT22;18622;51.998;10.440;2023-04-08T16:13:05;12.50;98.40
32107;DHT22;18622;51.998;10.440;2023-04-08T16:15:34;12.40;98.10
32107;DHT22;18622;51.998;10.440;2023-04-08T16:18:02;12.40;98.40
32107;DHT22;18622;51.998;10.440;2023-04-08T16:20:31;12.40;98.80
32107;DHT22;18622;51.998;10.440;2023-04-08T16:22:59;12.30;97.80
32107;DHT22;18622;51.998;10.440;2023-04-08T16:25:27;12.20;97.90
32107;DHT22;18622;51.998;10.440;2023-04-08T16:27:55;12.20;98.10
32107;DHT22;18622;51.998;10.440;2023-04-08T16:30:23;12.10;98.20
32107;DHT22;18622;51.998;10.440;2023-04-08T16:32:51;12.00;98.60
32107;DHT22;18622;51.998;10.440;2023-04-08T16:35:19;11.90;98.90
32107;DHT22;18622;51.998;10.440;2023-04-08T16:37:47;11.90;99.20
32107;DHT22;18622;51.998;10.440;2023-04-08T16:40:15;11.90;99.40
32107;DHT22;18622;51.998;10.440;2023-04-08T16:42:43;11.90;99.50
32107;DHT22;18622;51.998;10.440;2023-04-08T16:45:11;11.80;99.60
32107;DHT22;18622;51.998;10.440;2023-04-08T16:47:39;11.80;99.90
32107;DHT22;18622;51.998;10.440;2023-04-08T16:50:07;11.80;99.90
32107;DHT22;18622;51.998;10.440;2023-04-08T16:52:35;11.80;99.90
32107;DHT22;18622;51.998;10.440;2023-04-08T16:55:04;11.80;99.90
32107;DHT22;18622;51.998;10.440;2023-04-08T16:57:32;11.70;99.80
32107;DHT22;18622;51.998;10.440;2023-04-08T16:59:59;11.70;99.60
32107;DHT22;18622;51.998;10.440;2023-04-08T17:02:27;11.70;99.50
32107;DHT22;18622;51.998;10.440;2023-04-08T17:04:55;11.60;99.50
32107;DHT22;18622;51.998;10.440;2023-04-08T17:07:24;11.60;99.80
32107;DHT22;18622;51.998;10.440;2023-04-08T17:09:53;11.60;99.90
32107;DHT22;18622;51.998;10.440;2023-04-08T17:12:22;11.60;99.80
32107;DHT22;18622;51.998;10.440;2023-04-08T17:14:50;11.50;99.80
32107;DHT22;18622;51.998;10.440;2023-04-08T17:17:18;11.50;99.70
32107;DHT22;18622;51.998;10.440;2023-04-08T17:19:46;11.50;99.90
32107;DHT22;18622;51.998;10.440;2023-04-08T17:22:14;11.40;99.90
32107;DHT22;18622;51.998;10.440;2023-04-08T17:24:42;11.30;99.90
32107;DHT22;18622;51.998;10.440;2023-04-08T17:27:11;11.30;99.90
32107;DHT22;18622;51.998;10.440;2023-04-08T17:29:38;11.20;99.90
32107;DHT22;18622;51.998;10.440;2023-04-08T17:32:07;11.20;99.90
32107;DHT22;18622;51.998;10.440;2023-04-08T17:34:35;11.20;99.90
32107;DHT22;18622;51.998;10.440;2023-04-08T17:37:03;11.10;99.90
32107;DHT22;18622;51.998;10.440;2023-04-08T17:39:31;11.10;99.90
32107;DHT22;18622;51.998;10.440;2023-04-08T17:41:59;11.10;99.90
32107;DHT22;18622;51.998;10.440;2023-04-08T17:44:27;11.00;99.90
32107;DHT22;18622;51.998;10.440;2023-04-08T17:46:55;11.00;99.90
32107;DHT22;18622;51.998;10.440;2023-04-08T17:49:24;10.90;99.90
32107;DHT22;18622;51.998;10.440;2023-04-08T17:51:51;10.90;99.90
32107;DHT22;18622;51.998;10.440;2023-04-08T17:54:19;10.90;99.90
32107;DHT22;18622;51.998;10.440;2023-04-08T17:56:47;10.80;99.90
32107;DHT22;18622;51.998;10.440;2023-04-08T17:59:15;10.70;99.90
32107;DHT22;18622;51.998;10.440;2023-04-08T18:01:43;10.70;99.90
32107;DHT22;18622;51.998;10.440;2023-04-08T18:04:11;10.60;99.90
32107;DHT22;18622;51.998;10.440;2023-04-08T18:06:39;10.50;99.90
32107;DHT22;18622;51.998;10.440;2023-04-08T18:09:07;10.40;99.90
32107;DHT22;18622;51.998;10.440;2023-04-08T18:11:35;10.40;99.90
32107;DHT22;18622;51.998;10.440;2023-04-08T18:14:02;10.30;99.90
32107;DHT22;18622;51.998;10.440;2023-04-08T18:16:31;10.20;99.90
32107;DHT22;18622;51.998;10.440;2023-04-08T18:18:59;10.10;99.90
32107;DHT22;18622;51.998;10.440;2023-04-08T18:21:27;10.10;99.90
32107;DHT22;18622;51.998;10.440;2023-04-08T18:23:55;10.10;99.90
32107;DHT22;18622;51.998;10.440;2023-04-08T18:26:22;10.00;99.90
32107;DHT22;18622;51.998;10.440;2023-04-08T18:28:50;10.00;99.90
32107;DHT22;18622;51.998;10.440;2023-04-08T18:31:18;9.90;99.90
32107;DHT22;18622;51.998;10.440;2023-04-08T18:33:46;9.90;99.90
32107;DHT22;18622;51.998;10.440;2023-04-08T18:36:14;9.80;99.90
32107;DHT22;18622;51.998;10.440;2023-04-08T18:38:42;9.70;99.90
32107;DHT22;18622;51.998;10.440;2023-04-08T18:41:10;9.60;99.90
32107;DHT22;18622;51.998;10.440;2023-04-08T18:43:38;9.60;99.90
32107;DHT22;18622;51.998;10.440;2023-04-08T18:46:06;9.60;99.90
32107;DHT22;18622;51.998;10.440;2023-04-08T18:48:34;9.60;99.90
32107;DHT22;18622;51.998;10.440;2023-04-08T18:51:02;9.60;99.90
32107;DHT22;18622;51.998;10.440;2023-04-08T18:53:30;9.60;99.90
32107;DHT22;18622;51.998;10.440;2023-04-08T18:55:58;9.50;99.90
32107;DHT22;18622;51.998;10.440;2023-04-08T18:58:26;9.50;99.90
32107;DHT22;18622;51.998;10.440;2023-04-08T19:00:54;9.50;99.90
32107;DHT22;18622;51.998;10.440;2023-04-08T19:03:21;9.50;99.90
32107;DHT22;18622;51.998;10.440;2023-04-08T19:05:49;9.50;99.90
32107;DHT22;18622;51.998;10.440;2023-04-08T19:08:17;9.50;99.90
32107;DHT22;18622;51.998;10.440;2023-04-08T19:10:45;9.50;99.90
32107;DHT22;18622;51.998;10.440;2023-04-08T19:13:13;9.40;99.90
32107;DHT22;18622;51.998;10.440;2023-04-08T19:15:41;9.30;99.90
32107;DHT22;18622;51.998;10.440;2023-04-08T19:18:08;9.20;99.90
32107;DHT22;18622;51.998;10.440;2023-04-08T19:20:36;9.00;99.90
32107;DHT22;18622;51.998;10.440;2023-04-08T19:23:04;8.80;99.90
32107;DHT22;18622;51.998;10.440;2023-04-08T19:25:33;8.50;99.90
32107;DHT22;18622;51.998;10.440;2023-04-08T19:28:01;8.40;99.90
32107;DHT22;18622;51.998;10.440;2023-04-08T19:30:39;8.30;99.90
32107;DHT22;18622;51.998;10.440;2023-04-08T19:33:04;8.20;99.90
32107;DHT22;18622;51.998;10.440;2023-04-08T19:35:34;8.20;99.90
32107;DHT22;18622;51.998;10.440;2023-04-08T19:38:02;8.30;99.90
32107;DHT22;18622;51.998;10.440;2023-04-08T19:40:31;8.40;99.90
32107;DHT22;18622;51.998;10.440;2023-04-08T19:42:58;8.50;99.90
32107;DHT22;18622;51.998;10.440;2023-04-08T19:45:26;8.60;99.90
32107;DHT22;18622;51.998;10.440;2023-04-08T19:47:54;8.70;99.90
32107;DHT22;18622;51.998;10.440;2023-04-08T19:50:22;8.70;99.90
32107;DHT22;18622;51.998;10.440;2023-04-08T19:52:50;8.90;99.90
32107;DHT22;18622;51.998;10.440;2023-04-08T19:55:18;8.90;99.90
32107;DHT22;18622;51.998;10.440;2023-04-08T19:57:46;8.90;99.90
32107;DHT22;18622;51.998;10.440;2023-04-08T20:00:14;9.00;99.90
32107;DHT22;18622;51.998;10.440;2023-04-08T20:02:42;9.10;99.90
32107;DHT22;18622;51.998;10.440;2023-04-08T20:05:10;9.10;99.90
32107;DHT22;18622;51.998;10.440;2023-04-08T20:07:43;9.10;99.90
32107;DHT22;18622;51.998;10.440;2023-04-08T20:10:11;9.10;99.90
32107;DHT22;18622;51.998;10.440;2023-04-08T20:12:39;9.10;99.90
32107;DHT22;18622;51.998;10.440;2023-04-08T20:15:09;9.00;99.90
32107;DHT22;18622;51.998;10.440;2023-04-08T20:17:37;9.00;99.90
32107;DHT22;18622;51.998;10.440;2023-04-08T20:20:06;8.90;99.90
32107;DHT22;18622;51.998;10.440;2023-04-08T20:22:34;8.90;99.90
32107;DHT22;18622;51.998;10.440;2023-04-08T20:25:02;8.90;99.90
32107;DHT22;18622;51.998;10.440;2023-04-08T20:27:31;8.90;99.90
32107;DHT22;18622;51.998;10.440;2023-04-08T20:29:59;8.90;99.90
32107;DHT22;18622;51.998;10.440;2023-04-08T20:32:27;8.90;99.90
32107;DHT22;18622;51.998;10.440;2023-04-08T20:34:54;8.90;99.90
32107;DHT22;18622;51.998;10.440;2023-04-08T20:37:22;8.80;99.90
32107;DHT22;18622;51.998;10.440;2023-04-08T20:39:50;8.70;99.90
32107;DHT22;18622;51.998;10.440;2023-04-08T20:42:18;8.60;99.90
32107;DHT22;18622;51.998;10.440;2023-04-08T20:44:46;8.50;99.90
32107;DHT22;18622;51.998;10.440;2023-04-08T20:47:14;8.40;99.90
32107;DHT22;18622;51.998;10.440;2023-04-08T20:49:42;8.30;99.90
32107;DHT22;18622;51.998;10.440;2023-04-08T20:52:10;8.30;99.90
32107;DHT22;18622;51.998;10.440;2023-04-08T20:54:38;8.30;99.90
32107;DHT22;18622;51.998;10.440;2023-04-08T20:57:06;8.30;99.90
32107;DHT22;18622;51.998;10.440;2023-04-08T20:59:33;8.30;99.90
